Latest Weather Observations for Spitfire Channel

IDQ60801

Issued at 11:32 pm EST Saturday 27 August 2016 (issued every 30 minutes, with the page automatically refreshed every 10 minutes)

About weather observations | Map of weather stations | Latest weather observations for QLD | Other Formats
Station Details ID: 040927 Name: SPITFIRE CHANNEL BEACON Lat: -27.05 Lon: 153.27 Height: 7.0 m
Data from the previous 72 hours. | See also: Recent months for locations in Queensland
Date/Time
EST
Temp
°C
App
Temp
°C
Dew
Point
°C
Rel
Hum
%
Delta-T
°C
Wind Press
QNH
hPa
Press
MSL
hPa
Rain since
9am
mm
Dir  Spd
km/h
Gust
km/h
Spd
kts
Gust
kts
27/11:30pm - - - - - S 19 22 10 12 - - -
27/11:00pm - - - - - SSE 20 24 11 13 - - -
27/10:30pm - - - - - SSE 26 28 14 15 - - -
27/10:00pm - - - - - SE 13 17 7 9 - - -
27/09:30pm - - - - - ESE 13 15 7 8 - - -
27/09:00pm - - - - - SE 4 9 2 5 - - -
27/08:30pm - - - - - ESE 7 9 4 5 - - -
27/08:00pm - - - - - ESE 9 11 5 6 - - -
27/07:30pm - - - - - ESE 15 17 8 9 - - -
27/07:00pm - - - - - SW 15 17 8 9 - - -
27/06:30pm - - - - - SW 13 19 7 10 - - -
27/06:00pm - - - - - SW 17 20 9 11 - - -
27/05:30pm - - - - - SW 19 22 10 12 - - -
27/05:00pm - - - - - SW 22 26 12 14 - - -
27/04:30pm - - - - - SSW 19 24 10 13 - - -
27/04:00pm - - - - - SSW 20 26 11 14 - - -
27/03:30pm - - - - - SSW 19 22 10 12 - - -
27/03:00pm - - - - - S 9 17 5 9 - - -
27/02:30pm - - - - - SSE 13 17 7 9 - - -
27/02:00pm - - - - - SSE 17 20 9 11 - - -
27/01:30pm - - - - - S 15 17 8 9 - - -
27/01:00pm - - - - - S 15 17 8 9 - - -
27/12:30pm - - - - - SSW 15 19 8 10 - - -
27/12:00pm - - - - - SSW 17 20 9 11 - - -
27/11:30am - - - - - SSW 20 24 11 13 - - -
27/11:00am - - - - - SSW 19 22 10 12 - - -
27/10:30am - - - - - SSW 19 22 10 12 - - -
27/10:00am - - - - - SSW 20 24 11 13 - - -
27/09:30am - - - - - SSW 20 26 11 14 - - -
27/09:00am - - - - - SSW 24 32 13 17 - - -
27/08:30am - - - - - SSW 26 32 14 17 - - -
27/08:00am - - - - - SW 22 26 12 14 - - -
27/07:30am - - - - - SW 22 26 12 14 - - -
27/07:00am - - - - - SW 19 24 10 13 - - -
27/06:30am - - - - - SSW 26 32 14 17 - - -
27/06:00am - - - - - SSW 26 32 14 17 - - -
27/05:30am - - - - - SW 20 30 11 16 - - -
27/05:00am - - - - - SSW 26 33 14 18 - - -
27/04:30am - - - - - SSW 28 33 15 18 - - -
27/04:00am - - - - - SSW 26 32 14 17 - - -
27/03:30am - - - - - SSW 26 32 14 17 - - -
27/03:00am - - - - - SSW 28 35 15 19 - - -
27/02:30am - - - - - SSW 32 37 17 20 - - -
27/02:00am - - - - - SSW 32 39 17 21 - - -
27/01:30am - - - - - SW 22 30 12 16 - - -
27/01:00am - - - - - SW 24 30 13 16 - - -
27/12:30am - - - - - WSW 26 30 14 16 - - -
27/12:00am - - - - - WSW 26 32 14 17 - - -
 
Date/Time
EST
Temp
°C
App
Temp
°C
Dew
Point
°C
Rel
Hum
%
Delta-T
°C
Wind Press
QNH
hPa
Press
MSL
hPa
Rain since
9am
mm
Dir  Spd
km/h
Gust
km/h
Spd
kts
Gust
kts
26/11:30pm - - - - - WSW 28 35 15 19 - - -
26/11:00pm - - - - - WSW 30 35 16 19 - - -
26/10:30pm - - - - - WSW 30 33 16 18 - - -
26/10:00pm - - - - - WSW 32 37 17 20 - - -
26/09:30pm - - - - - WSW 28 33 15 18 - - -
26/09:00pm - - - - - WSW 24 28 13 15 - - -
26/08:30pm - - - - - WSW 22 26 12 14 - - -
26/08:00pm - - - - - WSW 28 33 15 18 - - -
26/07:30pm - - - - - W 15 22 8 12 - - -
26/07:00pm - - - - - NW 6 7 3 4 - - -
26/06:30pm - - - - - NNE 2 4 1 2 - - -
26/06:00pm - - - - - NE 6 7 3 4 - - -
26/05:30pm - - - - - NNE 2 6 1 3 - - -
26/05:00pm - - - - - CALM 0 0 0 0 - - -
26/04:30pm - - - - - E 6 7 3 4 - - -
26/04:00pm - - - - - E 6 6 3 3 - - -
26/03:30pm - - - - - ESE 7 9 4 5 - - -
26/03:00pm - - - - - ESE 7 11 4 6 - - -
26/02:30pm - - - - - SE 9 11 5 6 - - -
26/02:00pm - - - - - SE 9 11 5 6 - - -
26/01:30pm - - - - - SE 7 9 4 5 - - -
26/01:00pm - - - - - SE 9 11 5 6 - - -
26/12:30pm - - - - - SSE 9 13 5 7 - - -
26/12:00pm - - - - - S 11 15 6 8 - - -
26/11:30am - - - - - SW 11 15 6 8 - - -
26/11:00am - - - - - SSW 13 17 7 9 - - -
26/10:30am - - - - - SSW 15 19 8 10 - - -
26/10:00am - - - - - SSW 17 20 9 11 - - -
26/09:30am - - - - - SSW 17 20 9 11 - - -
26/09:00am - - - - - SW 13 17 7 9 - - -
26/08:30am - - - - - SW 13 17 7 9 - - -
26/08:00am - - - - - SW 17 20 9 11 - - -
26/07:30am - - - - - SW 17 24 9 13 - - -
26/07:00am - - - - - WSW 19 24 10 13 - - -
26/06:30am - - - - - SW 19 22 10 12 - - -
26/06:00am - - - - - SW 19 24 10 13 - - -
26/05:30am - - - - - SW 20 24 11 13 - - -
26/05:00am - - - - - SW 19 24 10 13 - - -
26/04:30am - - - - - SW 19 20 10 11 - - -
26/04:00am - - - - - SW 17 20 9 11 - - -
26/03:30am - - - - - WSW 15 19 8 10 - - -
26/03:00am - - - - - SW 17 20 9 11 - - -
26/02:30am - - - - - SW 24 30 13 16 - - -
26/02:00am - - - - - SW 22 28 12 15 - - -
26/01:30am - - - - - SW 17 20 9 11 - - -
26/01:00am - - - - - SW 22 28 12 15 - - -
26/12:30am - - - - - SW 26 30 14 16 - - -
26/12:00am - - - - - SW 24 28 13 15 - - -
 
Date/Time
EST
Temp
°C
App
Temp
°C
Dew
Point
°C
Rel
Hum
%
Delta-T
°C
Wind Press
QNH
hPa
Press
MSL
hPa
Rain since
9am
mm
Dir  Spd
km/h
Gust
km/h
Spd
kts
Gust
kts
25/11:30pm - - - - - SW 20 26 11 14 - - -
25/11:00pm - - - - - SW 24 30 13 16 - - -
25/10:30pm - - - - - SW 28 33 15 18 - - -
25/10:00pm - - - - - SW 26 32 14 17 - - -
25/09:30pm - - - - - SW 28 33 15 18 - - -
25/09:00pm - - - - - SW 28 33 15 18 - - -
25/08:30pm - - - - - SW 26 37 14 20 - - -
25/08:00pm - - - - - SW 32 37 17 20 - - -
25/07:30pm - - - - - SW 32 39 17 21 - - -
25/07:00pm - - - - - SW 33 41 18 22 - - -
25/06:30pm - - - - - SW 33 41 18 22 - - -
25/06:00pm - - - - - SW 30 37 16 20 - - -
25/05:30pm - - - - - SW 30 37 16 20 - - -
25/05:00pm - - - - - SW 32 37 17 20 - - -
25/04:30pm - - - - - SSW 30 35 16 19 - - -
25/04:00pm - - - - - SSW 24 30 13 16 - - -
25/03:30pm - - - - - SW 19 28 10 15 - - -
25/03:00pm - - - - - SSW 20 28 11 15 - - -
25/02:30pm - - - - - SW 15 20 8 11 - - -
25/02:00pm - - - - - WSW 19 26 10 14 - - -
25/01:30pm - - - - - SSW 26 33 14 18 - - -
25/01:00pm - - - - - SW 22 32 12 17 - - -
25/12:30pm - - - - - SW 20 32 11 17 - - -
25/12:00pm - - - - - WSW 26 35 14 19 - - -
25/11:30am - - - - - SW 30 37 16 20 - - -
25/11:00am - - - - - WSW 30 44 16 24 - - -
25/10:30am - - - - - SW 30 37 16 20 - - -
25/10:00am - - - - - WSW 32 41 17 22 - - -
25/09:30am - - - - - SW 37 46 20 25 - - -
25/09:00am - - - - - WSW 30 39 16 21 - - -
25/08:30am - - - - - WSW 30 35 16 19 - - -
25/08:00am - - - - - WSW 30 41 16 22 - - -
25/07:30am - - - - - WSW 24 32 13 17 - - -
25/07:00am - - - - - SW 26 32 14 17 - - -
25/06:30am - - - - - SW 22 30 12 16 - - -
25/06:00am - - - - - SW 28 35 15 19 - - -
25/05:30am - - - - - SW 22 32 12 17 - - -
25/05:00am - - - - - WSW 20 28 11 15 - - -
25/04:30am - - - - - SW 30 35 16 19 - - -
25/04:00am - - - - - SW 28 33 15 18 - - -
25/03:30am - - - - - SW 20 28 11 15 - - -
25/03:00am - - - - - W 28 33 15 18 - - -
25/02:30am - - - - - W 30 35 16 19 - - -
25/02:00am - - - - - WNW 20 24 11 13 - - -
25/01:30am - - - - - WNW 26 32 14 17 - - -
25/01:00am - - - - - W 28 35 15 19 - - -
25/12:30am - - - - - WNW 24 28 13 15 - - -
25/12:00am - - - - - WNW 22 24 12 13 - - -

Other Formats:

Comma delimited format used in spreadsheet applications
http://www.bom.gov.au/fwo/IDQ60801/IDQ60801.94581.axf

JavaScript Object Notation format (JSON) in row-major order
http://www.bom.gov.au/fwo/IDQ60801/IDQ60801.94581.json